Bosqueville, Texas
Current Conditions -  °F | °C
As of 4:51 AM on Sunday 23 Nov 2014 (Local Time) from KACT Reporting Station
Broken Clouds Broken Clouds  
Wind Chill: 53°   Ceiling: 1100
Heat Index: 53°   Visibility: 10mi
Dew Point: 53°   Wind: 3mph
Humidity: 100%   Direction: 230°SW
Pressure: 29.64"   Gusts: NA
Location:  31.618°N, 97.2031°W
Report Text: KACT 231051Z 23003KT 10SM BKN011 12/12 A2964 RMK AO2 SLP035 T01170117
Loading
Personal Weather Stations






























Interactive Weather Map New forecast layout! Learn more

10-Day Weather Forecast

Advertisements
Track Severe Weather on mobile